Terminal Aerodrome Forecast
Issued by NWS Cleveland, OH

Home | Current Version | Previous Version | Text Only | Print | Product List | Glossary On
Versions: 1 2 3 4 5 6 7 8 9 10 11 12 13 14 15 16 17 18 19
000
FTUS41 KCLE 291722
TAFYNG
TAF
KYNG 291722Z 2918/3018 02006KT P6SM VCTS BKN045CB
      TEMPO 2919/2922 2SM SHRA BR BKN030 OVC050
     FM300000 08004KT P6SM SCT060 BKN120
     FM301100 10003KT 4SM BR BKN025
     FM301500 11003KT P6SM SCT025 OVC045=

USA.gov is the U.S. government's official web portal to all federal, state and local government web resources and services.